createdAt,value
2023-04-05T00:01:14.501Z,58.70
2023-04-05T00:03:43.290Z,63.20
2023-04-05T00:06:13.495Z,58.40
2023-04-05T00:08:41.917Z,60.10
2023-04-05T00:11:10.732Z,64.90
2023-04-05T00:13:38.779Z,53.50
2023-04-05T00:16:07.270Z,62.60
2023-04-05T00:18:35.535Z,65.40
2023-04-05T00:21:03.872Z,58.70
2023-04-05T00:23:38.593Z,58.20
2023-04-05T00:26:06.991Z,60.10
2023-04-05T00:28:35.464Z,55.20
2023-04-05T00:31:05.657Z,60.60
2023-04-05T00:33:33.763Z,57.30
2023-04-05T00:36:11.444Z,52.90
2023-04-05T00:38:40.771Z,69.10
2023-04-05T00:41:09.719Z,84.90
2023-04-05T00:43:38.217Z,75.90
2023-04-05T00:46:07.145Z,80.30
2023-04-05T00:48:36.246Z,58.30
2023-04-05T00:51:05.005Z,66.30
2023-04-05T00:53:33.023Z,66.50
2023-04-05T00:56:03.243Z,69.20
2023-04-05T00:58:32.055Z,70.70
2023-04-05T01:01:20.637Z,76.80
2023-04-05T01:03:56.037Z,81.00
2023-04-05T01:06:59.928Z,64.80
2023-04-05T01:10:06.556Z,59.10
2023-04-05T01:12:37.337Z,66.10
2023-04-05T01:15:06.100Z,61.30
2023-04-05T01:17:39.425Z,65.30
2023-04-05T01:20:13.292Z,59.90
2023-04-05T01:23:10.142Z,63.60
2023-04-05T01:26:00.260Z,61.40
2023-04-05T01:28:37.743Z,56.80
2023-04-05T01:31:14.849Z,60.60
2023-04-05T01:34:15.953Z,62.00
2023-04-05T01:36:56.313Z,68.30
2023-04-05T01:39:25.714Z,65.70
2023-04-05T01:42:02.658Z,67.60
2023-04-05T01:44:30.702Z,65.90
2023-04-05T01:46:58.714Z,65.60
2023-04-05T01:49:26.868Z,73.70
2023-04-05T01:51:55.056Z,209.00
2023-04-05T01:54:23.723Z,187.10
2023-04-05T01:56:51.689Z,165.50
2023-04-05T01:59:20.237Z,154.40
2023-04-05T02:01:48.351Z,112.60
2023-04-05T02:04:16.749Z,78.50
2023-04-05T02:06:44.793Z,70.80
2023-04-05T02:09:12.827Z,73.80
2023-04-05T02:11:40.971Z,75.70
2023-04-05T02:14:10.712Z,95.50
2023-04-05T02:16:38.798Z,84.00
2023-04-05T02:19:07.060Z,79.10
2023-04-05T02:21:36.838Z,68.80
2023-04-05T02:24:05.510Z,70.80
2023-04-05T02:26:33.844Z,71.90
2023-04-05T02:29:01.968Z,74.10
2023-04-05T02:31:30.464Z,69.60
2023-04-05T02:34:01.543Z,72.00
2023-04-05T02:36:29.616Z,68.90
2023-04-05T02:38:57.779Z,69.30
2023-04-05T02:41:26.098Z,76.00
2023-04-05T02:43:54.491Z,73.10
2023-04-05T02:46:22.464Z,73.10
2023-04-05T02:48:50.549Z,65.40
2023-04-05T02:51:18.907Z,68.90
2023-04-05T02:53:48.339Z,68.00
2023-04-05T02:56:17.073Z,69.70
2023-04-05T02:58:48.787Z,70.50
2023-04-05T03:01:20.354Z,67.50
2023-04-05T03:03:48.373Z,71.40
2023-04-05T03:06:23.492Z,64.10
2023-04-05T03:08:52.391Z,70.10
2023-04-05T03:11:25.047Z,66.50
2023-04-05T03:13:57.208Z,73.50
2023-04-05T03:16:40.209Z,66.80
2023-04-05T03:19:13.771Z,60.50
2023-04-05T03:21:45.492Z,73.80
2023-04-05T03:24:24.418Z,62.50
2023-04-05T03:26:53.914Z,73.30
2023-04-05T03:29:23.434Z,64.00
2023-04-05T03:31:52.554Z,79.30
2023-04-05T03:34:23.144Z,131.90
2023-04-05T03:36:51.440Z,111.70
2023-04-05T03:39:29.586Z,96.60
2023-04-05T03:41:58.071Z,68.70
2023-04-05T03:44:26.002Z,75.20
2023-04-05T03:46:54.565Z,82.70
2023-04-05T03:49:23.624Z,80.90
2023-04-05T03:51:52.098Z,81.30
2023-04-05T03:54:20.225Z,80.10
2023-04-05T03:56:48.250Z,67.50
2023-04-05T03:59:18.886Z,74.40
2023-04-05T04:03:01.933Z,70.50
2023-04-05T04:05:30.072Z,68.40
2023-04-05T04:07:58.226Z,79.10
2023-04-05T04:10:27.675Z,78.80
2023-04-05T04:12:58.645Z,84.30
2023-04-05T04:15:30.452Z,75.90
2023-04-05T04:18:12.156Z,93.90
2023-04-05T04:21:07.937Z,86.90
2023-04-05T04:23:55.812Z,77.50
2023-04-05T04:26:43.936Z,73.20
2023-04-05T04:29:47.975Z,88.30
2023-04-05T04:34:38.289Z,81.20
2023-04-05T04:37:30.290Z,77.20
2023-04-05T04:40:08.968Z,88.00
2023-04-05T04:42:58.807Z,85.60
2023-04-05T04:45:59.601Z,93.70
2023-04-05T04:48:42.436Z,89.90
2023-04-05T04:51:26.291Z,89.90
2023-04-05T04:53:54.589Z,84.10
2023-04-05T04:56:22.587Z,76.30
2023-04-05T04:58:54.994Z,86.00
2023-04-05T05:01:25.055Z,82.60
2023-04-05T05:03:53.735Z,86.80
2023-04-05T05:06:27.351Z,70.70
2023-04-05T05:08:56.457Z,78.40
2023-04-05T05:11:25.286Z,78.10
2023-04-05T05:13:53.595Z,75.10
2023-04-05T05:16:27.610Z,72.80
2023-04-05T05:18:55.798Z,72.50
2023-04-05T05:21:26.933Z,78.30
2023-04-05T05:23:58.745Z,69.30
2023-04-05T05:26:27.845Z,69.90
2023-04-05T05:28:56.596Z,66.60
2023-04-05T05:31:29.355Z,70.20
2023-04-05T05:33:57.378Z,67.70
2023-04-05T05:36:25.939Z,76.10
2023-04-05T05:38:54.595Z,72.10
2023-04-05T05:41:22.871Z,65.30
2023-04-05T05:43:51.233Z,66.30
2023-04-05T05:46:21.338Z,64.20
2023-04-05T05:48:49.422Z,65.90
2023-04-05T05:51:18.235Z,71.60
2023-04-05T05:53:47.198Z,69.90
2023-04-05T05:56:16.023Z,57.80
2023-04-05T05:58:46.478Z,60.80
2023-04-05T06:01:15.061Z,63.70
2023-04-05T06:03:43.244Z,63.20
2023-04-05T06:06:11.541Z,68.50
2023-04-05T06:08:39.629Z,67.10
2023-04-05T06:11:07.639Z,59.80
2023-04-05T06:13:36.478Z,64.10
2023-04-05T06:16:04.761Z,72.40
2023-04-05T06:18:32.744Z,64.60
2023-04-05T06:21:00.843Z,69.60
2023-04-05T06:23:29.364Z,68.40
2023-04-05T06:25:57.442Z,64.30
2023-04-05T06:28:25.413Z,62.20
2023-04-05T06:30:54.300Z,62.30
2023-04-05T06:33:22.327Z,57.20
2023-04-05T06:35:51.372Z,63.40
2023-04-05T06:38:19.787Z,56.50
2023-04-05T06:40:47.840Z,62.50
2023-04-05T06:43:16.000Z,63.00
2023-04-05T06:45:44.102Z,66.80
2023-04-05T06:48:12.836Z,55.00
2023-04-05T06:50:41.300Z,69.40
2023-04-05T06:53:09.540Z,66.70
2023-04-05T06:55:37.492Z,62.10
2023-04-05T06:58:05.522Z,68.90
2023-04-05T07:00:33.595Z,79.40
2023-04-05T07:03:01.933Z,73.10
2023-04-05T07:05:29.864Z,68.40
2023-04-05T07:07:58.944Z,72.50
2023-04-05T07:10:27.034Z,68.20
2023-04-05T07:12:55.400Z,61.60
2023-04-05T07:15:23.514Z,52.80
2023-04-05T07:17:52.386Z,57.60
2023-04-05T07:20:20.822Z,58.10
2023-04-05T07:22:48.902Z,61.40
2023-04-05T07:25:16.970Z,56.90
2023-04-05T07:27:45.062Z,68.20
2023-04-05T07:30:16.326Z,63.80
2023-04-05T07:32:45.093Z,49.30
2023-04-05T07:35:13.207Z,65.10
2023-04-05T07:37:41.378Z,56.70
2023-04-05T07:40:11.079Z,56.70
2023-04-05T07:42:39.713Z,58.60
2023-04-05T07:45:08.737Z,45.40
2023-04-05T07:47:36.840Z,54.20
2023-04-05T07:50:07.156Z,51.50
2023-04-05T07:52:35.288Z,50.80
2023-04-05T07:55:03.567Z,49.20
2023-04-05T07:57:31.575Z,53.00
2023-04-05T07:59:59.618Z,38.50
2023-04-05T08:02:27.992Z,38.70
2023-04-05T08:04:56.217Z,41.30
2023-04-05T08:07:24.423Z,28.70
2023-04-05T08:09:53.759Z,24.40
2023-04-05T08:12:21.863Z,30.50
2023-04-05T08:14:49.894Z,27.50
2023-04-05T08:17:18.095Z,22.10
2023-04-05T08:19:46.110Z,23.60
2023-04-05T08:22:14.139Z,19.20
2023-04-05T08:24:42.211Z,17.60
2023-04-05T08:27:10.460Z,20.50
2023-04-05T08:29:38.840Z,17.60
2023-04-05T08:32:07.232Z,20.80
2023-04-05T08:34:35.556Z,11.20
2023-04-05T08:37:03.656Z,14.10
2023-04-05T08:39:34.203Z,16.00
2023-04-05T08:42:15.969Z,14.20
2023-04-05T08:44:46.560Z,13.30
2023-04-05T08:47:18.935Z,8.00
2023-04-05T08:49:47.377Z,8.60
2023-04-05T08:52:15.886Z,6.90
2023-04-05T08:54:43.944Z,5.70
2023-04-05T08:57:12.247Z,9.90
2023-04-05T08:59:42.376Z,11.40
2023-04-05T09:02:19.875Z,9.30
2023-04-05T09:04:48.952Z,12.80
2023-04-05T09:07:18.158Z,11.20
2023-04-05T09:09:54.020Z,15.30
2023-04-05T09:12:23.099Z,18.50
2023-04-05T09:14:52.096Z,31.90
2023-04-05T09:17:20.075Z,27.10
2023-04-05T09:19:50.548Z,15.40
2023-04-05T09:22:18.673Z,18.70
2023-04-05T09:24:47.520Z,20.40
2023-04-05T09:27:20.506Z,18.10
2023-04-05T09:29:54.717Z,20.10
2023-04-05T09:32:27.783Z,22.10
2023-04-05T09:35:01.188Z,20.70
2023-04-05T09:37:31.532Z,20.20
2023-04-05T09:40:05.163Z,20.30
2023-04-05T09:42:47.869Z,17.10
2023-04-05T09:45:18.415Z,19.90
2023-04-05T09:47:58.825Z,20.80
2023-04-05T09:50:27.245Z,24.50
2023-04-05T09:53:07.650Z,20.80
2023-04-05T09:55:36.177Z,24.90
2023-04-05T09:58:04.345Z,17.10
2023-04-05T10:00:33.060Z,19.60
2023-04-05T10:03:01.323Z,16.30
2023-04-05T10:05:29.929Z,13.70
2023-04-05T10:07:59.146Z,16.80
2023-04-05T10:10:27.463Z,14.20
2023-04-05T10:12:55.862Z,14.40
2023-04-05T10:15:26.505Z,18.10
2023-04-05T10:18:10.768Z,13.50
2023-04-05T10:20:47.541Z,15.20
2023-04-05T10:23:25.733Z,14.40
2023-04-05T10:25:57.247Z,14.30
2023-04-05T10:28:34.807Z,15.80
2023-04-05T10:31:24.049Z,11.00
2023-04-05T10:34:07.337Z,10.00
2023-04-05T10:36:47.631Z,10.70
2023-04-05T10:39:38.834Z,9.80
2023-04-05T10:42:20.682Z,8.90
2023-04-05T10:44:53.830Z,13.20
2023-04-05T10:47:23.942Z,13.30
2023-04-05T10:49:56.519Z,12.20
2023-04-05T10:52:25.897Z,11.30
2023-04-05T10:54:57.686Z,12.30
2023-04-05T10:57:26.565Z,8.80
2023-04-05T10:59:56.172Z,7.90
2023-04-05T11:04:37.209Z,10.30
2023-04-05T11:07:15.690Z,8.70
2023-04-05T11:10:18.036Z,10.60
2023-04-05T11:12:49.705Z,7.90
2023-04-05T11:15:30.089Z,12.70
2023-04-05T11:18:04.815Z,7.00
2023-04-05T11:20:53.349Z,8.40
2023-04-05T11:23:23.430Z,13.00
2023-04-05T11:25:51.981Z,7.60
2023-04-05T11:28:41.109Z,10.80
2023-04-05T11:31:15.418Z,6.90
2023-04-05T11:33:57.337Z,7.80
2023-04-05T11:36:47.977Z,9.20
2023-04-05T11:39:19.240Z,7.00
2023-04-05T11:42:00.601Z,7.90
2023-04-05T11:44:51.590Z,7.20
2023-04-05T11:47:23.496Z,6.70
2023-04-05T11:49:52.877Z,7.30
2023-04-05T11:52:21.913Z,7.20
2023-04-05T11:54:50.276Z,6.40
2023-04-05T11:57:23.780Z,9.40
2023-04-05T11:59:54.019Z,5.10
2023-04-05T12:02:22.415Z,6.00
2023-04-05T12:04:58.182Z,8.60
2023-04-05T12:07:37.064Z,10.30
2023-04-05T12:10:15.960Z,5.50
2023-04-05T12:12:45.140Z,6.50
2023-04-05T12:15:15.154Z,10.50
2023-04-05T12:17:54.763Z,8.70
2023-04-05T12:20:26.287Z,8.00
2023-04-05T12:22:56.859Z,8.30
2023-04-05T12:25:25.269Z,5.10
2023-04-05T12:27:53.873Z,7.40
2023-04-05T12:30:23.952Z,13.30
2023-04-05T12:32:56.280Z,6.70
2023-04-05T12:37:53.885Z,9.70
2023-04-05T12:40:23.453Z,10.90
2023-04-05T12:42:52.224Z,11.50
2023-04-05T12:45:23.824Z,4.90
2023-04-05T12:47:59.976Z,4.80
2023-04-05T12:50:30.704Z,8.90
2023-04-05T12:53:08.933Z,11.40
2023-04-05T12:55:47.884Z,5.40
2023-04-05T12:58:17.596Z,5.80
2023-04-05T13:00:46.809Z,8.90
2023-04-05T13:03:21.794Z,11.10
2023-04-05T13:05:50.010Z,8.20
2023-04-05T13:08:18.813Z,9.00
2023-04-05T13:10:50.316Z,4.70
2023-04-05T13:13:21.076Z,6.70
2023-04-05T13:15:51.444Z,6.10
2023-04-05T13:18:20.716Z,8.40
2023-04-05T13:20:48.847Z,5.60
2023-04-05T13:23:16.874Z,9.10
2023-04-05T13:25:47.784Z,8.90
2023-04-05T13:28:15.850Z,13.00
2023-04-05T13:30:43.873Z,9.30
2023-04-05T13:33:12.289Z,11.70
2023-04-05T13:35:41.078Z,9.90
2023-04-05T13:38:09.337Z,9.20
2023-04-05T13:40:37.767Z,7.80
2023-04-05T13:43:05.837Z,9.80
2023-04-05T13:45:34.407Z,9.50
2023-04-05T13:48:05.834Z,8.90
2023-04-05T13:50:33.894Z,11.00
2023-04-05T13:53:01.954Z,7.40
2023-04-05T13:55:30.276Z,10.10
2023-04-05T13:57:58.392Z,8.70
2023-04-05T14:00:26.724Z,6.30
2023-04-05T14:02:54.863Z,8.60
2023-04-05T14:05:22.856Z,12.80
2023-04-05T14:07:50.993Z,15.30
2023-04-05T14:10:21.667Z,9.30
2023-04-05T14:12:49.915Z,6.70
2023-04-05T14:15:18.112Z,10.00
2023-04-05T14:17:46.253Z,7.40
2023-04-05T14:20:14.360Z,9.90
2023-04-05T14:22:42.495Z,9.40
2023-04-05T14:25:10.682Z,13.70
2023-04-05T14:27:42.404Z,7.70
2023-04-05T14:30:11.485Z,6.40
2023-04-05T14:32:39.911Z,10.80
2023-04-05T14:35:08.623Z,9.60
2023-04-05T14:37:36.655Z,11.80
2023-04-05T14:40:06.094Z,11.90
2023-04-05T14:42:47.576Z,6.60
2023-04-05T14:45:16.618Z,11.10
2023-04-05T14:47:44.829Z,12.30
2023-04-05T14:50:12.953Z,14.00
2023-04-05T14:52:41.277Z,11.50
2023-04-05T14:55:09.832Z,7.10
2023-04-05T14:57:38.057Z,7.30
2023-04-05T15:00:08.265Z,8.50
2023-04-05T15:02:37.909Z,8.50
2023-04-05T15:05:07.041Z,9.20
2023-04-05T15:07:35.158Z,6.70
2023-04-05T15:10:04.111Z,8.20
2023-04-05T15:12:33.163Z,12.20
2023-04-05T15:15:02.298Z,13.20
2023-04-05T15:17:30.748Z,8.50
2023-04-05T15:19:58.948Z,6.80
2023-04-05T15:22:27.265Z,8.00
2023-04-05T15:24:56.059Z,7.30
2023-04-05T15:27:24.129Z,8.30
2023-04-05T15:29:52.975Z,7.40
2023-04-05T15:32:21.386Z,10.00
2023-04-05T15:34:49.481Z,11.90
2023-04-05T15:37:18.096Z,9.60
2023-04-05T15:39:46.173Z,9.80
2023-04-05T15:42:15.678Z,8.70
2023-04-05T15:44:44.066Z,12.70
2023-04-05T15:47:12.415Z,11.30
2023-04-05T15:49:40.597Z,15.20
2023-04-05T15:52:09.967Z,10.30
2023-04-05T15:54:38.126Z,7.80
2023-04-05T15:57:06.285Z,9.60
2023-04-05T15:59:34.440Z,6.40
2023-04-05T16:02:04.495Z,8.50
2023-04-05T16:04:32.587Z,7.80
2023-04-05T16:07:00.773Z,11.10
2023-04-05T16:09:30.081Z,7.50
2023-04-05T16:11:59.427Z,16.00
2023-04-05T16:14:27.992Z,10.00
2023-04-05T16:16:56.217Z,11.60
2023-04-05T16:19:24.541Z,10.80
2023-04-05T16:21:53.654Z,20.40
2023-04-05T16:24:27.395Z,14.50
2023-04-05T16:26:56.659Z,12.60
2023-04-05T16:29:25.108Z,24.10
2023-04-05T16:31:54.546Z,25.30
2023-04-05T16:34:23.015Z,20.30
2023-04-05T16:36:51.374Z,20.50
2023-04-05T16:39:19.463Z,17.20
2023-04-05T16:41:47.544Z,10.60
2023-04-05T16:44:15.556Z,11.60
2023-04-05T16:46:45.549Z,12.10
2023-04-05T16:49:15.893Z,11.10
2023-04-05T16:51:44.040Z,9.50
2023-04-05T16:54:12.092Z,13.70
2023-04-05T16:56:40.149Z,10.10
2023-04-05T16:59:09.798Z,11.20
2023-04-05T17:01:38.986Z,14.00
2023-04-05T17:04:07.556Z,11.10
2023-04-05T17:06:35.567Z,14.40
2023-04-05T17:09:04.290Z,10.90
2023-04-05T17:11:33.878Z,14.60
2023-04-05T17:14:01.791Z,35.80
2023-04-05T17:16:29.820Z,20.20
2023-04-05T17:18:57.962Z,26.10
2023-04-05T17:21:26.445Z,16.80
2023-04-05T17:23:55.038Z,21.40
2023-04-05T17:26:24.096Z,26.10
2023-04-05T17:28:52.441Z,20.60
2023-04-05T17:31:21.042Z,33.90
2023-04-05T17:33:49.040Z,29.40
2023-04-05T17:36:17.866Z,36.10
2023-04-05T17:38:46.298Z,32.10
2023-04-05T17:41:14.339Z,23.20
2023-04-05T17:43:42.389Z,21.90
2023-04-05T17:46:13.966Z,22.30
2023-04-05T17:48:42.491Z,21.90
2023-04-05T17:51:10.879Z,17.50
2023-04-05T17:53:39.042Z,21.10
2023-04-05T17:56:07.474Z,24.20
2023-04-05T17:58:35.976Z,20.40
2023-04-05T18:01:04.435Z,18.40
2023-04-05T18:03:33.121Z,30.50
2023-04-05T18:06:02.183Z,24.30
2023-04-05T18:08:30.540Z,21.00
2023-04-05T18:10:59.604Z,19.50
2023-04-05T18:13:28.448Z,28.50
2023-04-05T18:15:58.715Z,25.70
2023-04-05T18:18:27.672Z,24.90
2023-04-05T18:20:59.595Z,20.90
2023-04-05T18:23:28.518Z,15.50
2023-04-05T18:25:58.198Z,18.20
2023-04-05T18:28:26.354Z,15.70
2023-04-05T18:30:54.670Z,15.00
2023-04-05T18:33:22.922Z,14.80
2023-04-05T18:35:52.478Z,22.80
2023-04-05T18:38:21.975Z,16.30
2023-04-05T18:40:50.808Z,18.90
2023-04-05T18:43:19.322Z,18.60
2023-04-05T18:45:47.446Z,21.10
2023-04-05T18:48:15.669Z,17.80
2023-04-05T18:50:44.130Z,17.60
2023-04-05T18:53:12.344Z,19.20
2023-04-05T18:55:40.882Z,18.50
2023-04-05T18:58:09.653Z,21.30
2023-04-05T19:04:55.638Z,22.60
2023-04-05T19:07:22.649Z,20.50
2023-04-05T19:09:49.366Z,19.60
2023-04-05T19:12:16.030Z,23.60
2023-04-05T19:14:42.666Z,14.50
2023-04-05T19:17:09.724Z,21.20
2023-04-05T19:19:36.693Z,13.60
2023-04-05T19:22:03.567Z,14.30
2023-04-05T19:24:31.331Z,13.90
2023-04-05T19:26:57.989Z,11.90
2023-04-05T19:29:25.351Z,14.60
2023-04-05T19:31:55.278Z,10.60
2023-04-05T19:34:21.907Z,12.60
2023-04-05T19:36:48.713Z,12.30
2023-04-05T19:39:15.424Z,10.20
2023-04-05T19:41:42.913Z,16.50
2023-04-05T19:44:11.588Z,13.50
2023-04-05T19:46:40.415Z,13.60
2023-04-05T19:49:12.196Z,19.00
2023-04-05T19:51:40.909Z,15.50
2023-04-05T19:54:11.255Z,20.90
2023-04-05T19:56:38.569Z,14.30
2023-04-05T19:59:17.603Z,20.80
2023-04-05T20:01:46.624Z,10.80
2023-04-05T20:04:19.520Z,14.00
2023-04-05T20:06:52.348Z,15.20
2023-04-05T20:09:24.202Z,17.80
2023-04-05T20:11:58.139Z,15.70
2023-04-05T20:14:29.698Z,15.80
2023-04-05T20:16:57.756Z,15.90
2023-04-05T20:19:30.063Z,11.20
2023-04-05T20:21:59.641Z,12.00
2023-04-05T20:24:27.865Z,10.20
2023-04-05T20:26:56.385Z,11.30
2023-04-05T20:29:28.097Z,11.80
2023-04-05T20:31:55.781Z,12.50
2023-04-05T20:34:32.043Z,10.30
2023-04-05T20:37:01.125Z,10.80
2023-04-05T20:39:28.979Z,9.10
2023-04-05T20:41:56.296Z,8.20
2023-04-05T20:44:23.988Z,6.70
2023-04-05T20:46:52.754Z,7.70
2023-04-05T20:49:21.100Z,8.50
2023-04-05T20:51:56.018Z,7.60
2023-04-05T20:54:23.513Z,7.00
2023-04-05T20:56:51.112Z,5.60
2023-04-05T20:59:17.758Z,6.10
2023-04-05T21:01:46.899Z,6.20
2023-04-05T21:04:14.535Z,4.90
2023-04-05T21:06:41.621Z,6.30
2023-04-05T21:09:08.505Z,9.80
2023-04-05T21:11:35.519Z,8.00
2023-04-05T21:14:02.315Z,6.70
2023-04-05T21:16:29.128Z,6.80
2023-04-05T21:18:55.844Z,3.90
2023-04-05T21:21:22.535Z,10.40
2023-04-05T21:23:49.438Z,6.10
2023-04-05T21:26:16.051Z,7.40
2023-04-05T21:28:42.698Z,5.90
2023-04-05T21:31:10.041Z,6.50
2023-04-05T21:33:36.860Z,6.20
2023-04-05T21:36:03.885Z,6.50
2023-04-05T21:38:30.676Z,5.20
2023-04-05T21:40:57.308Z,7.50
2023-04-05T21:43:24.111Z,9.10
2023-04-05T21:45:52.540Z,10.90
2023-04-05T21:48:19.625Z,5.00
2023-04-05T21:50:46.344Z,5.60
2023-04-05T21:53:14.003Z,3.80
2023-04-05T21:55:40.937Z,4.20
2023-04-05T21:58:08.299Z,4.90
2023-04-05T22:00:35.541Z,5.10
2023-04-05T22:03:02.332Z,5.80
2023-04-05T22:05:37.135Z,7.80
2023-04-05T22:08:05.839Z,6.20
2023-04-05T22:10:33.127Z,5.90
2023-04-05T22:12:59.960Z,5.00
2023-04-05T22:15:26.860Z,4.40
2023-04-05T22:17:54.151Z,6.20
2023-04-05T22:20:20.799Z,10.00
2023-04-05T22:22:47.520Z,6.60
2023-04-05T22:25:14.323Z,6.30
2023-04-05T22:27:41.077Z,6.30
2023-04-05T22:30:08.525Z,7.20
2023-04-05T22:32:35.301Z,12.00
2023-04-05T22:35:03.620Z,5.70
2023-04-05T22:37:34.771Z,6.90
2023-04-05T22:40:02.362Z,7.80
2023-04-05T22:42:29.018Z,6.10
2023-04-05T22:44:55.685Z,6.70
2023-04-05T22:47:22.326Z,6.70
2023-04-05T22:49:49.288Z,5.80
2023-04-05T22:52:16.112Z,5.40
2023-04-05T22:54:42.661Z,6.70
2023-04-05T22:57:11.219Z,6.20
2023-04-05T22:59:38.620Z,6.20
2023-04-05T23:02:05.452Z,6.30
2023-04-05T23:04:32.752Z,8.00
2023-04-05T23:06:59.257Z,6.60
2023-04-05T23:09:26.576Z,9.70
2023-04-05T23:11:53.834Z,9.40
2023-04-05T23:14:20.950Z,6.00
2023-04-05T23:16:47.493Z,10.20
2023-04-05T23:19:13.999Z,8.90
2023-04-05T23:21:41.004Z,7.80
2023-04-05T23:24:07.860Z,7.00
2023-04-05T23:26:34.496Z,6.40
2023-04-05T23:29:01.081Z,8.10
2023-04-05T23:31:27.790Z,10.10
2023-04-05T23:33:55.247Z,7.40
2023-04-05T23:36:22.065Z,11.60
2023-04-05T23:38:48.825Z,6.20
2023-04-05T23:41:15.534Z,6.50
2023-04-05T23:43:43.181Z,11.20
2023-04-05T23:46:10.105Z,6.50
2023-04-05T23:48:36.690Z,4.20
2023-04-05T23:51:03.489Z,3.10
2023-04-05T23:53:30.502Z,5.60
2023-04-05T23:55:57.217Z,6.90
2023-04-05T23:58:23.929Z,8.10
